Stations météo

réclame
Mon MeteoGroup
St.Catherine`s Point, Grande-Bretagne (3866): Température de l'air & dewpoint: 12.01.2020 01:00:00 - 18.01.2020 01:00:00 (GMT)St.Catherine`s Point, Grande-Bretagne (3866): Vitesse du vent & gusts: 12.01.2020 01:00:00 - 18.01.2020 01:00:00 (GMT)St.Catherine`s Point, Grande-Bretagne (3866): Direction du vent: 12.01.2020 01:00:00 - 18.01.2020 01:00:00 (GMT)St.Catherine`s Point, Grande-Bretagne (3866): reduced air pressure: 12.01.2020 01:00:00 - 18.01.2020 01:00:00 (GMT)St.Catherine`s Point, Grande-Bretagne (3866): Quantités de précipitations: 12.01.2020 01:00:00 - 18.01.2020 01:00:00 (GMT)
Date & Time tt [°C] td [°C] ff [km/h] ff [knt] fx [km/h] fx [knt] dd ppp [hPa] rr [mm]
18.01.2020 01:00:00 6,7 3,0 29 16 - - W 1022,5 0,0
18.01.2020 00:00:00 6,6 3,1 29 16 - - W 1021,5 0,0
17.01.2020 23:00:00 6,5 2,6 34 18 50 27 W 1020,7 0,0
17.01.2020 22:00:00 6,7 3,3 35 19 48 26 W 1020,0 0,0
17.01.2020 21:00:00 7,1 2,9 34 18 50 27 W 1019,0 0,0
17.01.2020 20:00:00 7,9 3,7 29 16 50 27 W 1018,7 0,0
17.01.2020 19:00:00 7,9 2,9 35 19 52 28 W 1018,4 0,0
17.01.2020 18:00:00 7,7 2,4 39 21 50 27 W 1018,1 0,0
17.01.2020 17:00:00 8,1 3,2 41 22 50 27 W 1017,5 0,0
17.01.2020 16:00:00 7,7 3,7 31 17 48 26 W 1017,0 0,0
17.01.2020 15:00:00 7,7 3,0 35 19 54 29 W 1016,4 0,0
17.01.2020 14:00:00 8,0 3,0 42 23 63 34 W 1015,5 0,0
17.01.2020 13:00:00 8,2 4,2 48 26 65 35 W 1014,9 0,0
17.01.2020 12:00:00 8,1 3,5 46 25 65 35 W 1014,2 0,0
17.01.2020 11:00:00 7,9 4,0 46 25 68 37 W 1013,5 0,0
17.01.2020 10:00:00 8,3 4,2 50 27 76 41 W 1011,7 0,2
17.01.2020 09:00:00 8,9 6,1 48 26 67 36 W 1010,3 0,0
17.01.2020 08:00:00 9,6 5,9 44 24 59 32 WSW 1009,7 0,0
17.01.2020 07:00:00 10,1 6,1 42 23 57 31 WSW 1008,9 0,0
17.01.2020 06:00:00 10,0 7,2 31 17 - - WSW 1009,0 0,0
17.01.2020 05:00:00 9,2 7,7 26 14 57 31 WSW 1009,0 1,2
17.01.2020 04:00:00 10,2 9,0 16 9 - - SSW 1008,9 0,0
17.01.2020 03:00:00 10,2 9,0 15 8 - - SW 1009,5 0,0
17.01.2020 02:00:00 10,2 8,9 21 11 - - SW 1009,5 0,0
17.01.2020 01:00:00 10,3 9,1 24 13 - - SW 1009,8 0,0
17.01.2020 00:00:00 10,2 9,3 18 10 - - SW 1009,8 0,0
16.01.2020 23:00:00 10,3 9,5 16 9 - - SW 1010,2 0,2
16.01.2020 22:00:00 10,3 9,4 22 12 - - SW 1010,4 0,2
16.01.2020 21:00:00 10,7 9,4 29 16 46 25 SW 1010,5 0,8
16.01.2020 20:00:00 10,8 9,2 24 13 50 27 SSW 1010,1 1,2
16.01.2020 19:00:00 10,9 8,8 18 10 - - S 1010,1 1,0
16.01.2020 18:00:00 11,6 8,3 21 11 - - S 1010,1 0,0
16.01.2020 17:00:00 11,5 7,9 21 11 - - SSE 1010,2 0,0
16.01.2020 16:00:00 11,5 7,7 21 11 - - SSE 1010,5 0,0
16.01.2020 15:00:00 11,2 7,6 21 11 - - SSE 1010,9 0,0
16.01.2020 14:00:00 10,8 7,4 16 9 - - SSE 1011,8 0,0
16.01.2020 13:00:00 10,5 7,3 18 10 - - SSE 1012,2 0,0
16.01.2020 12:00:00 10,1 7,3 22 12 46 25 SSE 1013,5 0,0
16.01.2020 11:00:00 9,8 7,6 18 10 - - SSE 1014,9 0,0
16.01.2020 10:00:00 9,4 7,5 18 10 - - SSE 1015,5 0,0
16.01.2020 09:00:00 9,0 7,5 18 10 - - SSE 1016,5 0,0
16.01.2020 08:00:00 8,9 7,3 21 11 - - SSE 1016,7 0,0
16.01.2020 07:00:00 9,1 7,1 18 10 - - SSE 1017,4 0,0
16.01.2020 06:00:00 9,1 6,7 21 11 - - SSE 1017,8 0,0
16.01.2020 05:00:00 9,1 6,4 22 12 - - S 1018,7 0,0
16.01.2020 04:00:00 9,3 5,6 18 10 - - SSW 1019,1 0,0
16.01.2020 03:00:00 9,2 6,3 18 10 - - SSW 1019,2 0,0
16.01.2020 02:00:00 9,3 6,4 22 12 - - SW 1019,2 0,0
16.01.2020 01:00:00 9,5 6,7 21 11 - - SW 1019,3 0,0
16.01.2020 00:00:00 9,7 6,8 26 14 - - SW 1018,8 0,0
15.01.2020 23:00:00 9,8 6,9 26 14 - - SW 1018,6 0,0
15.01.2020 22:00:00 9,9 6,1 29 16 - - WSW 1018,2 0,0
15.01.2020 21:00:00 9,8 5,7 29 16 - - WSW 1017,8 0,0
15.01.2020 20:00:00 9,7 6,2 26 14 - - WSW 1017,4 0,0
15.01.2020 19:00:00 9,7 5,2 35 19 46 25 WSW 1016,3 0,0
15.01.2020 18:00:00 8,9 5,8 28 15 - - W 1015,3 0,0
15.01.2020 17:00:00 9,4 4,9 35 19 52 28 W 1014,1 0,0
15.01.2020 16:00:00 9,6 4,6 37 20 52 28 W 1012,6 0,0
15.01.2020 15:00:00 9,9 5,6 37 20 50 27 W 1011,4 0,0
15.01.2020 14:00:00 9,8 7,0 31 17 52 28 WSW 1010,2 0,0
15.01.2020 13:00:00 8,4 6,4 39 21 52 28 WSW 1009,2 0,2
15.01.2020 12:00:00 8,9 6,0 26 14 - - WSW 1008,1 0,0
15.01.2020 11:00:00 7,8 6,0 15 8 - - SW 1006,8 0,4
15.01.2020 10:00:00 6,5 5,5 2 1 - - W 1005,5 0,6
15.01.2020 09:00:00 5,9 4,6 9 5 - - WNW 1004,5 2,6
15.01.2020 08:00:00 6,8 5,1 16 9 - - NW 1003,5 2,0
15.01.2020 07:00:00 7,5 6,6 13 7 - - WNW 1002,3 1,8
15.01.2020 06:00:00 8,2 7,6 16 9 - - W 1001,1 1,6
15.01.2020 05:00:00 8,5 8,1 16 9 - - WNW 1000,5 2,0
15.01.2020 04:00:00 9,2 8,6 21 11 55 30 W 999,8 2,6
15.01.2020 03:00:00 10,7 9,7 44 24 67 36 SW 999,8 0,4
15.01.2020 02:00:00 11,7 9,1 48 26 76 41 SW 999,3 0,0
15.01.2020 01:00:00 11,9 9,1 50 27 80 43 SW 999,0 0,0
15.01.2020 00:00:00 12,0 9,1 55 30 83 45 SW 998,6 0,0
14.01.2020 23:00:00 11,3 9,5 52 28 89 48 SW 998,6 0,6
14.01.2020 22:00:00 11,2 9,9 54 29 81 44 SW 998,1 0,2
14.01.2020 21:00:00 11,1 9,9 48 26 76 41 SW 998,1 0,0
14.01.2020 20:00:00 11,5 9,7 48 26 74 40 SW 997,6 0,2
14.01.2020 19:00:00 11,4 10,2 46 25 74 40 SW 997,3 0,0
14.01.2020 18:00:00 11,1 10,4 48 26 70 38 SW 996,8 0,8
14.01.2020 17:00:00 11,3 10,7 42 23 68 37 SW 996,5 0,2
14.01.2020 16:00:00 11,4 10,7 48 26 67 36 SW 996,2 0,4
14.01.2020 15:00:00 11,5 10,9 46 25 67 36 SW 995,7 0,4
14.01.2020 14:00:00 11,6 11,0 50 27 68 37 SW 995,7 0,4
14.01.2020 13:00:00 11,4 10,5 50 27 68 37 SW 995,8 0,4
14.01.2020 12:00:00 10,8 9,9 29 16 48 26 SSW 996,4 0,0
14.01.2020 11:00:00 10,0 8,9 22 12 - - S 997,9 0,4
14.01.2020 10:00:00 9,7 8,3 28 15 - - SW 998,9 1,0
14.01.2020 09:00:00 9,5 8,3 29 16 50 27 WSW 999,4 0,0
14.01.2020 08:00:00 9,9 8,1 26 14 - - WSW 999,4 0,0
14.01.2020 07:00:00 10,0 7,9 29 16 - - WSW 999,6 0,0
14.01.2020 06:00:00 10,0 7,6 29 16 - - WSW 999,4 0,0
14.01.2020 05:00:00 9,9 7,2 35 19 50 27 WSW 999,0 0,0
14.01.2020 04:00:00 10,0 7,2 37 20 48 26 WSW 998,5 0,0
14.01.2020 03:00:00 9,9 7,0 39 21 50 27 WSW 998,6 0,0
14.01.2020 02:00:00 9,8 7,4 34 18 48 26 WSW 998,3 0,0
14.01.2020 01:00:00 9,4 7,3 41 22 55 30 WSW 998,2 0,2
14.01.2020 00:00:00 8,9 7,0 41 22 57 31 WSW 998,5 0,4
13.01.2020 23:00:00 8,6 7,1 42 23 55 30 WSW 998,4 1,0
13.01.2020 22:00:00 8,4 7,8 39 21 68 37 W 998,1 0,8
13.01.2020 21:00:00 10,5 9,2 44 24 70 38 SW 997,2 0,6
13.01.2020 20:00:00 10,6 9,2 35 19 61 33 SSW 998,0 0,2
13.01.2020 19:00:00 10,5 8,9 37 20 70 38 SSW 998,9 1,0
13.01.2020 18:00:00 10,5 8,6 34 18 61 33 SSW 1000,0 0,4
13.01.2020 17:00:00 10,8 7,6 28 15 52 28 SSW 1001,0 0,0
13.01.2020 16:00:00 10,4 7,4 26 14 54 29 SSW 1002,4 0,0
13.01.2020 15:00:00 9,6 8,1 28 15 50 27 S 1003,8 0,0
13.01.2020 14:00:00 9,7 7,0 28 15 52 28 SSW 1005,5 0,0
13.01.2020 13:00:00 9,5 7,0 28 15 48 26 SSW 1007,6 0,0
13.01.2020 12:00:00 9,0 7,0 28 15 46 25 SSW 1009,6 0,0
13.01.2020 11:00:00 8,8 6,7 34 18 46 25 SSW 1011,2 0,0
13.01.2020 10:00:00 9,2 6,9 24 13 - - SSW 1012,5 0,0
13.01.2020 09:00:00 9,1 6,7 22 12 - - SW 1013,6 0,0
13.01.2020 08:00:00 9,2 6,5 34 18 - - SW 1014,3 0,0
13.01.2020 07:00:00 9,1 7,0 26 14 - - SW 1014,8 0,0
13.01.2020 06:00:00 9,3 6,6 24 13 - - SW 1015,7 0,0
13.01.2020 05:00:00 9,4 6,8 22 12 - - SW 1016,4 0,0
13.01.2020 04:00:00 8,9 6,7 15 8 - - SW 1017,4 0,0
13.01.2020 03:00:00 8,7 6,5 26 14 - - WSW 1018,4 0,0
13.01.2020 02:00:00 9,0 6,0 26 14 - - WSW 1019,1 0,0
13.01.2020 01:00:00 9,5 6,0 28 15 - - WSW 1019,8 0,2
13.01.2020 00:00:00 9,6 6,2 28 15 - - WSW 1020,6 0,0
12.01.2020 23:00:00 9,3 6,3 31 17 - - WSW 1021,1 0,0
12.01.2020 22:00:00 9,0 5,9 29 16 - - W 1021,2 0,0
12.01.2020 21:00:00 9,1 7,0 26 14 - - W 1021,5 0,0
12.01.2020 20:00:00 9,1 6,6 29 16 - - W 1021,6 0,0
12.01.2020 19:00:00 9,2 6,8 28 15 - - W 1021,7 0,0
12.01.2020 18:00:00 9,2 6,8 29 16 - - W 1021,8 0,0
12.01.2020 17:00:00 9,3 6,9 31 17 - - W 1021,5 0,0
12.01.2020 16:00:00 9,7 6,8 34 18 - - W 1021,2 0,0
12.01.2020 15:00:00 10,1 6,8 34 18 48 26 W 1020,7 0,0
12.01.2020 14:00:00 10,3 6,3 39 21 54 29 W 1020,5 0,0
12.01.2020 13:00:00 10,5 7,0 42 23 59 32 W 1020,1 0,0
12.01.2020 12:00:00 10,6 7,6 44 24 61 33 W 1020,0 0,0
12.01.2020 11:00:00 10,6 7,8 46 25 61 33 W 1019,8 0,0
12.01.2020 10:00:00 10,3 8,3 41 22 63 34 W 1019,2 0,0
12.01.2020 09:00:00 10,0 7,9 52 28 67 36 W 1018,4 0,0
12.01.2020 08:00:00 10,1 8,7 44 24 63 34 W 1017,8 0,0
12.01.2020 07:00:00 10,2 9,6 50 27 63 34 WSW 1017,5 0,0
12.01.2020 06:00:00 10,2 9,2 46 25 59 32 WSW 1017,6 0,0
12.01.2020 05:00:00 9,9 8,9 37 20 52 28 WSW 1018,0 0,2
12.01.2020 04:00:00 9,5 8,6 37 20 54 29 SW 1018,3 0,4
12.01.2020 03:00:00 9,6 8,5 35 19 55 30 SW 1019,1 0,8
12.01.2020 02:00:00 10,1 7,7 39 21 57 31 WSW 1019,6 0,0
12.01.2020 01:00:00 10,0 7,5 37 20 54 29 WSW 1020,0 0,0

tt = Température de l'air
td = dewpoint
ff = Vitesse du vent
fx = gusts
dd = Direction du vent
ppp = reduced air pressure
rr = Quantités de précipitations

stations d'obs. à proximité